Time;durP1;ratioP1;P1;durP2;ratioP2;P2;SDS_P1;SDS_P2;PMS_P1;PMS_P2;Temp;Humidity;BMP_temperature;BMP_pressure;BME280_temperature;BME280_humidity;BME280_pressure;Samples;Min_cycle;Max_cycle;Signal;HPM_P1;HPM_P2
2022/03/08 00:02:14;;;;;;;31.93;12.27;;;1.50;99.90;;;;;;5013525;28;20259;-77
2022/03/08 00:04:40;;;;;;;28.13;11.20;;;1.60;99.90;;;;;;5013688;28;20214;-78
2022/03/08 00:07:06;;;;;;;27.67;11.63;;;1.50;99.90;;;;;;5012899;28;20259;-77
2022/03/08 00:09:32;;;;;;;29.10;11.10;;;1.50;99.90;;;;;;5013176;28;20228;-77
2022/03/08 00:11:58;;;;;;;30.57;12.13;;;1.40;99.90;;;;;;5013067;28;20227;-77
2022/03/08 00:14:23;;;;;;;28.37;10.50;;;1.40;99.90;;;;;;5013504;28;20191;-77
2022/03/08 00:16:49;;;;;;;27.27;11.70;;;1.40;99.90;;;;;;5013449;28;20175;-78
2022/03/08 00:19:15;;;;;;;34.70;12.80;;;1.30;99.90;;;;;;5013070;28;20207;-77
2022/03/08 00:21:41;;;;;;;27.70;11.53;;;1.30;99.90;;;;;;5013150;28;20214;-77
2022/03/08 00:24:08;;;;;;;30.00;12.97;;;1.30;99.90;;;;;;5014585;28;20258;-77
2022/03/08 00:26:34;;;;;;;28.53;11.63;;;1.40;99.90;;;;;;5012962;28;20697;-76
2022/03/08 00:29:00;;;;;;;30.23;12.03;;;1.30;99.90;;;;;;5012994;28;20202;-76
2022/03/08 00:31:25;;;;;;;30.63;12.27;;;1.30;99.90;;;;;;5012939;28;20181;-76
2022/03/08 00:33:51;;;;;;;28.10;11.80;;;1.30;99.90;;;;;;5013013;28;20632;-76
2022/03/08 00:36:18;;;;;;;30.00;11.97;;;1.30;99.90;;;;;;5012710;28;20183;-76
2022/03/08 00:38:43;;;;;;;28.33;11.90;;;1.40;99.90;;;;;;5012774;28;20199;-75
2022/03/08 00:41:09;;;;;;;29.27;11.57;;;1.30;99.90;;;;;;5012518;28;20180;-76
2022/03/08 00:43:35;;;;;;;26.33;11.77;;;1.20;99.90;;;;;;5012600;28;20259;-76
2022/03/08 00:46:01;;;;;;;28.83;11.40;;;1.10;99.90;;;;;;5012647;28;20209;-76
2022/03/08 00:48:26;;;;;;;29.40;11.97;;;1.10;99.90;;;;;;5012735;28;20201;-75
2022/03/08 00:50:52;;;;;;;33.20;12.27;;;1.00;99.90;;;;;;5012560;28;20517;-76
2022/03/08 00:53:18;;;;;;;30.00;11.43;;;1.00;99.90;;;;;;5012237;28;20189;-77
2022/03/08 00:55:44;;;;;;;26.03;11.43;;;1.00;99.90;;;;;;5012389;28;20180;-76
2022/03/08 00:58:09;;;;;;;29.70;12.03;;;0.90;99.90;;;;;;5013748;28;20258;-76
2022/03/08 01:00:37;;;;;;;30.07;12.27;;;0.90;99.90;;;;;;5012338;28;20176;-77
2022/03/08 01:03:03;;;;;;;34.63;13.20;;;0.90;99.90;;;;;;5013193;28;20191;-77
2022/03/08 01:05:30;;;;;;;26.87;11.80;;;0.80;99.90;;;;;;5012194;28;20204;-76
2022/03/08 01:07:56;;;;;;;28.63;12.27;;;0.60;99.90;;;;;;5011842;28;20194;-76
2022/03/08 01:10:23;;;;;;;31.60;11.80;;;0.60;99.90;;;;;;5012223;28;20180;-77
2022/03/08 01:12:50;;;;;;;28.73;11.83;;;0.60;99.90;;;;;;5011750;28;20171;-77
2022/03/08 01:15:17;;;;;;;30.60;12.27;;;0.50;99.90;;;;;;5012065;28;20192;-75
2022/03/08 01:17:44;;;;;;;26.27;11.67;;;0.40;99.90;;;;;;5011992;28;20662;-77
2022/03/08 01:20:11;;;;;;;30.63;12.63;;;0.40;99.90;;;;;;5011013;28;20660;-76
2022/03/08 01:22:37;;;;;;;29.77;12.47;;;0.40;99.90;;;;;;5011737;28;20183;-76
2022/03/08 01:25:04;;;;;;;30.70;13.33;;;0.60;99.90;;;;;;5013119;28;20207;-76
2022/03/08 01:27:30;;;;;;;32.87;12.73;;;0.60;99.90;;;;;;5011818;28;20658;-77
2022/03/08 01:29:56;;;;;;;33.57;12.57;;;0.50;99.90;;;;;;5013056;28;20245;-76
2022/03/08 01:32:21;;;;;;;30.73;11.43;;;0.50;99.90;;;;;;5011673;28;20282;-76
2022/03/08 01:34:47;;;;;;;30.43;12.07;;;0.40;99.90;;;;;;5011535;28;20710;-76
2022/03/08 01:37:13;;;;;;;27.77;12.40;;;0.40;99.90;;;;;;5011504;28;20180;-77
2022/03/08 01:39:39;;;;;;;30.17;12.43;;;0.50;99.90;;;;;;5011734;28;20182;-77
2022/03/08 01:42:17;;;;;;;30.73;11.80;;;0.40;99.90;;;;;;5121858;27;20554;-76
2022/03/08 01:44:45;;;;;;;28.50;12.27;;;0.30;99.90;;;;;;5088046;28;20173;-76
2022/03/08 01:47:17;;;;;;;30.13;11.57;;;0.30;99.90;;;;;;5087934;28;20166;-76
2022/03/08 01:49:43;;;;;;;32.60;12.80;;;0.30;99.90;;;;;;5087957;28;20175;-76
2022/03/08 01:52:10;;;;;;;29.10;12.07;;;0.30;99.90;;;;;;5087630;28;20179;-77
2022/03/08 01:54:36;;;;;;;30.83;12.37;;;0.20;99.90;;;;;;5099940;22;20235;-76
2022/03/08 01:57:03;;;;;;;26.67;11.87;;;0.20;99.90;;;;;;5087828;28;20221;-77
2022/03/08 01:59:29;;;;;;;27.57;12.47;;;0.20;99.90;;;;;;5087689;28;20280;-76
2022/03/08 02:01:55;;;;;;;27.30;11.97;;;0.10;99.90;;;;;;5087391;28;20296;-77
2022/03/08 02:04:20;;;;;;;30.90;12.40;;;0.10;99.90;;;;;;5087642;28;20200;-76
2022/03/08 02:06:46;;;;;;;31.23;12.70;;;0.20;99.90;;;;;;5087409;28;20168;-77
2022/03/08 02:09:13;;;;;;;30.03;12.53;;;0.00;99.90;;;;;;5087134;28;20686;-77
2022/03/08 02:11:39;;;;;;;31.33;12.60;;;0.00;99.90;;;;;;5087368;28;20249;-77
2022/03/08 02:14:05;;;;;;;26.00;11.73;;;0.00;99.90;;;;;;5087459;28;20284;-77
2022/03/08 02:16:31;;;;;;;30.60;12.17;;;0.00;99.90;;;;;;5087392;28;20730;-76
2022/03/08 02:18:56;;;;;;;29.23;11.63;;;-0.10;99.90;;;;;;5087282;28;20241;-77
2022/03/08 02:21:22;;;;;;;30.73;13.07;;;-0.10;99.90;;;;;;5087028;28;20660;-77
2022/03/08 02:23:48;;;;;;;29.57;12.70;;;-0.20;99.90;;;;;;5087246;28;20259;-76
2022/03/08 02:26:14;;;;;;;30.27;12.33;;;-0.20;99.90;;;;;;5087206;28;20169;-76
2022/03/08 02:28:41;;;;;;;32.53;12.60;;;-0.20;99.90;;;;;;5087189;28;20198;-76
2022/03/08 02:31:07;;;;;;;38.23;12.60;;;-0.10;99.90;;;;;;5086962;28;20203;-77
2022/03/08 02:33:32;;;;;;;30.23;12.30;;;-0.20;99.90;;;;;;5087126;28;20253;-76
2022/03/08 02:35:58;;;;;;;31.27;12.03;;;-0.20;99.90;;;;;;5087387;28;20221;-76
2022/03/08 02:38:24;;;;;;;33.47;13.03;;;-0.20;99.90;;;;;;5086866;28;20189;-76
2022/03/08 02:40:50;;;;;;;30.50;13.13;;;-0.10;99.90;;;;;;5086834;28;20191;-76
2022/03/08 02:43:16;;;;;;;33.67;13.27;;;-0.10;99.90;;;;;;5086896;28;20781;-76
2022/03/08 02:45:42;;;;;;;34.93;13.97;;;-0.20;99.90;;;;;;5086884;28;20172;-76
2022/03/08 02:48:09;;;;;;;32.77;12.73;;;-0.20;99.90;;;;;;5086865;28;20211;-76
2022/03/08 02:50:35;;;;;;;29.80;12.23;;;-0.20;99.90;;;;;;5086937;28;20543;-76
2022/03/08 02:53:01;;;;;;;28.33;11.80;;;-0.30;99.90;;;;;;5075908;28;20177;-76
2022/03/08 02:55:30;;;;;;;30.27;12.90;;;-0.30;99.90;;;;;;5073188;28;20590;-76
2022/03/08 02:57:56;;;;;;;34.60;13.43;;;-0.30;99.90;;;;;;5073060;28;20200;-76
2022/03/08 03:00:23;;;;;;;33.57;12.20;;;-0.30;99.90;;;;;;5072893;28;20285;-77
2022/03/08 03:02:50;;;;;;;33.13;12.57;;;-0.30;99.90;;;;;;5072452;28;20165;-77
2022/03/08 03:05:15;;;;;;;27.57;11.60;;;-0.30;99.90;;;;;;5072553;28;20681;-77
2022/03/08 03:07:41;;;;;;;36.67;12.70;;;-0.20;99.90;;;;;;5072227;28;20190;-76
2022/03/08 03:10:10;;;;;;;36.00;12.60;;;-0.20;99.90;;;;;;5072239;28;20267;-76
2022/03/08 03:12:36;;;;;;;30.17;12.40;;;-0.30;99.90;;;;;;5072229;28;20165;-77
2022/03/08 03:15:04;;;;;;;28.60;12.23;;;-0.30;99.90;;;;;;5072250;28;20188;-77
2022/03/08 03:17:29;;;;;;;35.07;13.53;;;-0.20;99.90;;;;;;5072305;28;20197;-77
2022/03/08 03:19:55;;;;;;;30.97;12.23;;;-0.20;99.90;;;;;;5072483;28;20175;-76
2022/03/08 03:22:21;;;;;;;36.53;12.43;;;-0.30;99.90;;;;;;5073785;28;20176;-76
2022/03/08 03:24:46;;;;;;;32.47;12.60;;;-0.30;99.90;;;;;;5072701;28;20177;-76
2022/03/08 03:27:12;;;;;;;27.37;11.70;;;-0.30;99.90;;;;;;5072495;28;20184;-77
2022/03/08 03:29:38;;;;;;;30.93;12.33;;;-0.30;99.90;;;;;;5072576;28;20177;-77
2022/03/08 03:32:04;;;;;;;25.70;11.93;;;-0.40;99.90;;;;;;5072313;28;20190;-76
2022/03/08 03:34:30;;;;;;;27.77;12.60;;;-0.40;99.90;;;;;;5072428;28;20177;-76
2022/03/08 03:36:55;;;;;;;31.33;11.53;;;-0.40;99.90;;;;;;5072466;28;20177;-76
2022/03/08 03:39:21;;;;;;;28.07;11.57;;;-0.50;99.90;;;;;;5072264;28;20250;-76
2022/03/08 03:41:47;;;;;;;33.07;12.23;;;-0.50;99.90;;;;;;5071989;28;20250;-76
2022/03/08 03:44:12;;;;;;;33.07;12.57;;;-0.40;99.90;;;;;;5072301;28;20169;-76
2022/03/08 03:46:38;;;;;;;26.27;11.50;;;-0.40;99.90;;;;;;5072257;28;20169;-77
2022/03/08 03:49:04;;;;;;;35.67;12.70;;;-0.30;99.90;;;;;;5072144;28;20544;-77
2022/03/08 03:51:30;;;;;;;32.80;13.03;;;-0.30;99.90;;;;;;5071876;28;20188;-76
2022/03/08 03:53:55;;;;;;;29.93;12.93;;;-0.30;99.90;;;;;;5073312;28;20184;-76
2022/03/08 03:56:21;;;;;;;31.30;12.17;;;-0.30;99.90;;;;;;5071948;28;20272;-77
2022/03/08 03:58:47;;;;;;;26.17;11.33;;;-0.40;99.90;;;;;;5071958;28;20736;-77
2022/03/08 04:01:12;;;;;;;27.47;11.60;;;-0.40;99.90;;;;;;5071805;28;20249;-76
2022/03/08 04:03:38;;;;;;;27.00;12.60;;;-0.50;99.90;;;;;;5070965;28;20177;-77
2022/03/08 04:06:04;;;;;;;28.80;10.77;;;-0.60;99.90;;;;;;5071196;28;20253;-76
2022/03/08 04:08:30;;;;;;;26.43;11.70;;;-0.70;99.90;;;;;;5071476;28;20193;-77
2022/03/08 04:10:56;;;;;;;26.17;11.00;;;-0.60;99.90;;;;;;5071606;28;20183;-77
2022/03/08 04:13:21;;;;;;;29.63;11.87;;;-0.70;99.90;;;;;;5072896;28;20233;-76
2022/03/08 04:15:47;;;;;;;27.93;11.80;;;-0.60;99.90;;;;;;5071702;28;20184;-76
2022/03/08 04:18:14;;;;;;;31.83;12.00;;;-0.60;99.90;;;;;;5071563;28;20676;-76
2022/03/08 04:20:40;;;;;;;31.00;11.97;;;-0.60;99.90;;;;;;5071498;28;20208;-76
2022/03/08 04:23:05;;;;;;;25.33;10.50;;;-0.60;99.90;;;;;;5071420;28;20267;-76
2022/03/08 04:25:31;;;;;;;28.37;11.83;;;-0.70;99.90;;;;;;5071347;28;20181;-76
2022/03/08 04:27:57;;;;;;;25.50;11.20;;;-0.60;99.90;;;;;;5071434;28;20200;-76
2022/03/08 04:30:23;;;;;;;28.10;10.90;;;-0.60;99.90;;;;;;5071383;28;20530;-77
2022/03/08 04:32:52;;;;;;;24.27;11.13;;;-0.60;99.90;;;;;;5071101;28;20199;-76
2022/03/08 04:35:19;;;;;;;24.97;11.00;;;-0.60;99.90;;;;;;5071264;28;20541;-76
2022/03/08 04:37:45;;;;;;;25.17;10.83;;;-0.60;99.90;;;;;;5071173;28;20201;-77
2022/03/08 04:40:12;;;;;;;27.73;11.80;;;-0.70;99.90;;;;;;5071080;28;20192;-76
2022/03/08 04:42:38;;;;;;;28.40;11.07;;;-0.70;99.90;;;;;;5071050;28;20175;-77
2022/03/08 04:45:05;;;;;;;27.20;11.73;;;-0.70;99.90;;;;;;5071513;28;20173;-76
2022/03/08 04:47:34;;;;;;;30.33;11.47;;;-0.80;99.90;;;;;;5071017;28;20197;-76
2022/03/08 04:49:59;;;;;;;28.17;11.13;;;-0.70;99.90;;;;;;5071126;28;20218;-77
2022/03/08 04:52:25;;;;;;;28.90;11.30;;;-0.80;99.90;;;;;;5071182;28;20264;-76
2022/03/08 04:54:51;;;;;;;27.70;11.63;;;-0.80;99.90;;;;;;5072002;28;20191;-77
2022/03/08 04:57:16;;;;;;;29.33;11.27;;;-0.80;99.90;;;;;;5071875;28;20169;-77
2022/03/08 04:59:42;;;;;;;24.43;11.47;;;-0.80;99.90;;;;;;5071152;28;20176;-76
2022/03/08 05:02:07;;;;;;;23.43;10.90;;;-0.90;99.90;;;;;;5072053;28;20232;-77
2022/03/08 05:04:33;;;;;;;23.87;10.67;;;-0.90;99.90;;;;;;5070875;28;20176;-77
2022/03/08 05:06:59;;;;;;;22.47;11.33;;;-0.90;99.90;;;;;;5070757;28;20209;-77
2022/03/08 05:09:24;;;;;;;31.27;11.03;;;-0.90;99.90;;;;;;5070309;28;20215;-77
2022/03/08 05:11:50;;;;;;;24.60;11.23;;;-0.90;99.90;;;;;;5070563;28;20177;-76
2022/03/08 05:14:16;;;;;;;28.97;12.37;;;-1.00;99.90;;;;;;5070701;28;20181;-76
2022/03/08 05:16:41;;;;;;;27.93;10.20;;;-1.00;99.90;;;;;;5070045;28;20183;-76
2022/03/08 05:19:07;;;;;;;23.70;10.33;;;-0.80;99.90;;;;;;5070600;28;20200;-77
2022/03/08 05:21:32;;;;;;;29.07;11.30;;;-0.70;99.90;;;;;;5070323;28;20733;-76
2022/03/08 05:23:58;;;;;;;30.63;12.33;;;-0.60;99.90;;;;;;5070455;28;20180;-76
2022/03/08 05:26:24;;;;;;;31.63;12.33;;;-0.60;99.90;;;;;;5070480;28;20212;-76
2022/03/08 05:28:49;;;;;;;28.13;11.60;;;-0.60;99.90;;;;;;5070481;28;20192;-77
2022/03/08 05:31:15;;;;;;;29.50;11.67;;;-0.50;99.90;;;;;;5070302;28;20244;-76
2022/03/08 05:33:40;;;;;;;30.43;11.23;;;-0.50;99.90;;;;;;5070381;28;20204;-76
2022/03/08 05:36:06;;;;;;;22.27;10.53;;;-0.60;99.90;;;;;;5070388;28;20203;-76
2022/03/08 05:38:32;;;;;;;28.57;10.63;;;-0.50;99.90;;;;;;5070303;28;20197;-76
2022/03/08 05:40:59;;;;;;;29.53;10.80;;;-0.60;99.90;;;;;;5070290;28;20664;-77
2022/03/08 05:43:25;;;;;;;26.90;11.70;;;-0.60;99.90;;;;;;5070238;28;20177;-76
2022/03/08 05:45:51;;;;;;;22.47;10.57;;;-0.60;99.90;;;;;;5070438;28;20177;-76
2022/03/08 05:48:17;;;;;;;35.33;11.03;;;-0.60;99.90;;;;;;5070311;28;20287;-76
2022/03/08 05:50:43;;;;;;;23.70;10.37;;;-0.60;99.90;;;;;;5070354;28;20195;-76
2022/03/08 05:53:08;;;;;;;26.63;11.17;;;-0.60;99.90;;;;;;5069967;28;20180;-76
2022/03/08 05:55:34;;;;;;;22.13;9.53;;;-0.40;99.90;;;;;;5070273;28;20230;-76
2022/03/08 05:58:00;;;;;;;20.63;9.90;;;-0.40;99.90;;;;;;5070218;28;20216;-76
2022/03/08 06:00:25;;;;;;;24.33;10.83;;;-0.40;99.90;;;;;;5070135;28;20196;-76
2022/03/08 06:02:51;;;;;;;24.77;10.20;;;-0.40;99.90;;;;;;5070038;28;20185;-76
2022/03/08 06:05:18;;;;;;;18.80;9.23;;;-0.30;99.90;;;;;;5070098;28;20596;-76
2022/03/08 06:07:43;;;;;;;18.67;9.80;;;-0.30;99.90;;;;;;5069876;28;20211;-76
2022/03/08 06:10:09;;;;;;;25.63;10.63;;;-0.30;99.90;;;;;;5070250;28;20539;-76
2022/03/08 06:12:36;;;;;;;26.43;10.17;;;-0.20;99.90;;;;;;5069874;28;20226;-76
2022/03/08 06:15:03;;;;;;;25.37;10.57;;;-0.20;99.90;;;;;;5069848;28;20222;-76
2022/03/08 06:17:29;;;;;;;22.93;10.37;;;-0.10;99.90;;;;;;5069999;28;20177;-76
2022/03/08 06:19:54;;;;;;;23.30;9.23;;;-0.10;99.90;;;;;;5069908;28;20184;-76
2022/03/08 06:22:20;;;;;;;24.37;10.03;;;-0.10;99.90;;;;;;5071071;28;20165;-76
2022/03/08 06:24:46;;;;;;;22.90;10.10;;;-0.10;99.90;;;;;;5069940;28;20184;-76
2022/03/08 06:27:13;;;;;;;24.37;9.97;;;0.00;99.90;;;;;;5070774;28;20192;-75
2022/03/08 06:29:39;;;;;;;20.60;9.60;;;0.00;99.90;;;;;;5074990;28;20176;-76
2022/03/08 06:32:06;;;;;;;20.50;9.57;;;0.00;99.90;;;;;;5073484;28;20181;-76
2022/03/08 06:34:31;;;;;;;20.27;9.80;;;0.20;99.90;;;;;;5073285;28;20540;-76
2022/03/08 06:36:57;;;;;;;21.80;8.70;;;0.20;99.90;;;;;;5073596;28;20180;-75
2022/03/08 06:39:23;;;;;;;21.13;9.77;;;0.30;99.90;;;;;;5073692;28;20618;-75
2022/03/08 06:41:48;;;;;;;24.73;8.93;;;0.40;99.90;;;;;;5073268;28;20228;-76
2022/03/08 06:44:14;;;;;;;20.73;9.27;;;0.50;99.90;;;;;;5073511;28;20176;-75
2022/03/08 06:46:44;;;;;;;21.87;9.40;;;0.60;99.90;;;;;;5073628;28;20200;-75
2022/03/08 06:49:11;;;;;;;20.83;8.67;;;0.90;99.90;;;;;;5073188;28;20603;-75
2022/03/08 06:51:37;;;;;;;20.43;9.00;;;1.20;99.90;;;;;;5073120;28;20541;-76
2022/03/08 06:54:04;;;;;;;22.57;9.43;;;1.30;99.90;;;;;;5073184;28;20199;-76
2022/03/08 06:56:29;;;;;;;20.43;9.20;;;1.20;99.90;;;;;;5073222;28;20174;-76
2022/03/08 06:58:55;;;;;;;23.63;9.77;;;1.20;99.90;;;;;;5073125;28;20292;-76
2022/03/08 07:01:21;;;;;;;18.27;8.83;;;1.30;99.90;;;;;;5072828;28;20203;-75
2022/03/08 07:03:46;;;;;;;27.00;9.17;;;1.50;99.90;;;;;;5072942;28;20171;-75
2022/03/08 07:06:12;;;;;;;22.60;9.23;;;2.00;99.90;;;;;;5072480;28;20179;-76
2022/03/08 07:08:37;;;;;;;19.70;8.93;;;2.60;99.10;;;;;;5072592;28;20196;-75
2022/03/08 07:11:04;;;;;;;18.90;8.97;;;3.10;97.90;;;;;;5072724;28;20181;-77
2022/03/08 07:13:31;;;;;;;19.33;9.30;;;3.20;97.40;;;;;;5072658;28;20184;-76
2022/03/08 07:15:57;;;;;;;17.83;8.60;;;3.50;96.60;;;;;;5074220;28;20644;-78
2022/03/08 07:18:23;;;;;;;19.40;8.73;;;3.70;95.70;;;;;;5074277;28;20204;-79
2022/03/08 07:20:49;;;;;;;17.00;9.03;;;3.30;96.40;;;;;;5074822;28;20549;-79
2022/03/08 07:23:15;;;;;;;17.23;8.33;;;4.40;93.90;;;;;;5075137;28;20223;-83
2022/03/08 07:25:42;;;;;;;17.03;8.60;;;5.30;90.60;;;;;;5075705;28;20569;-83
2022/03/08 07:28:08;;;;;;;12.70;7.20;;;5.10;91.70;;;;;;5076404;28;20195;-83
2022/03/08 07:30:34;;;;;;;13.30;8.23;;;5.50;91.60;;;;;;5074894;28;20178;-83
2022/03/08 07:33:00;;;;;;;15.13;8.70;;;6.20;90.00;;;;;;5073653;28;20191;-83
2022/03/08 07:35:25;;;;;;;16.87;8.60;;;6.50;87.80;;;;;;5073885;28;20180;-83
2022/03/08 07:37:54;;;;;;;13.50;7.70;;;7.30;84.70;;;;;;5074192;28;20199;-83
2022/03/08 07:40:20;;;;;;;16.30;7.93;;;7.70;81.30;;;;;;5074094;28;20197;-83
2022/03/08 07:42:46;;;;;;;15.53;8.50;;;6.50;86.40;;;;;;5073696;28;20191;-84
2022/03/08 07:45:12;;;;;;;14.90;7.30;;;7.00;85.50;;;;;;5075076;28;20173;-84
2022/03/08 07:47:37;;;;;;;15.53;8.10;;;8.80;79.40;;;;;;5074971;28;20222;-84
2022/03/08 07:50:05;;;;;;;11.27;7.83;;;9.00;78.70;;;;;;5074518;28;20183;-85
2022/03/08 07:52:30;;;;;;;12.83;7.00;;;9.00;77.30;;;;;;5075044;28;20180;-84
2022/03/08 07:54:56;;;;;;;14.80;8.33;;;9.60;74.10;;;;;;5074604;28;20714;-86
2022/03/08 07:57:22;;;;;;;15.77;8.00;;;9.30;74.10;;;;;;5074332;28;20762;-86
2022/03/08 07:59:48;;;;;;;14.70;7.40;;;9.80;75.10;;;;;;5074033;28;20264;-85
2022/03/08 08:02:13;;;;;;;14.47;7.77;;;9.70;75.20;;;;;;5074088;28;20269;-86
2022/03/08 08:04:39;;;;;;;12.70;7.43;;;9.80;74.30;;;;;;5074171;28;20582;-86
2022/03/08 08:07:05;;;;;;;12.53;7.03;;;8.50;76.70;;;;;;5073275;28;20179;-86
2022/03/08 08:09:30;;;;;;;13.73;7.13;;;10.00;75.50;;;;;;5074292;28;20204;-85
2022/03/08 08:11:56;;;;;;;13.60;7.73;;;9.90;74.60;;;;;;5074614;28;20173;-85
2022/03/08 08:14:22;;;;;;;15.20;8.43;;;10.10;74.20;;;;;;5074794;28;20283;-84
2022/03/08 08:16:47;;;;;;;14.23;8.07;;;9.80;76.40;;;;;;5075496;28;20184;-84
2022/03/08 08:19:13;;;;;;;14.30;7.80;;;8.60;77.70;;;;;;5077199;28;20188;-85
2022/03/08 08:21:39;;;;;;;13.00;7.30;;;7.80;78.60;;;;;;5075233;28;20208;-84
2022/03/08 08:24:05;;;;;;;13.33;7.23;;;8.20;80.10;;;;;;5075671;28;20595;-83
2022/03/08 08:26:31;;;;;;;12.50;7.93;;;7.70;81.60;;;;;;5075549;28;20184;-83
2022/03/08 08:28:57;;;;;;;17.77;7.47;;;8.30;79.30;;;;;;5075291;28;20245;-84
2022/03/08 08:31:23;;;;;;;12.20;7.13;;;7.90;79.40;;;;;;5068340;28;20176;-84
2022/03/08 08:33:50;;;;;;;9.83;6.70;;;9.20;74.60;;;;;;5064200;28;20191;-84
2022/03/08 08:36:16;;;;;;;12.23;7.23;;;9.90;74.70;;;;;;5074055;28;20184;-83
2022/03/08 08:38:42;;;;;;;8.93;7.40;;;10.10;73.30;;;;;;5072983;28;20219;-83
2022/03/08 08:41:08;;;;;;;9.87;6.63;;;10.40;74.70;;;;;;5073904;28;20659;-83
2022/03/08 08:43:34;;;;;;;13.90;7.27;;;9.80;73.90;;;;;;5073209;28;20187;-84
2022/03/08 08:45:59;;;;;;;10.37;6.83;;;8.90;76.50;;;;;;5073370;28;20177;-84
2022/03/08 08:48:26;;;;;;;11.87;6.90;;;8.90;78.20;;;;;;5073002;28;20195;-84
2022/03/08 08:50:52;;;;;;;9.67;7.00;;;8.20;77.30;;;;;;5074229;28;20180;-85
2022/03/08 08:53:19;;;;;;;8.73;6.67;;;8.10;79.70;;;;;;5074379;28;20191;-82
2022/03/08 08:55:44;;;;;;;11.13;6.30;;;8.50;76.60;;;;;;5072740;28;20173;-84
2022/03/08 08:58:12;;;;;;;9.03;6.30;;;8.60;78.50;;;;;;5075400;28;20271;-84
2022/03/08 09:00:37;;;;;;;9.73;6.20;;;8.70;77.70;;;;;;5081166;28;20193;-83
2022/03/08 09:03:04;;;;;;;15.47;6.63;;;8.70;79.80;;;;;;5080911;28;20184;-83
2022/03/08 09:05:30;;;;;;;10.77;6.03;;;9.00;79.50;;;;;;5080213;28;20176;-83
2022/03/08 09:07:55;;;;;;;10.77;5.30;;;9.20;76.00;;;;;;5077734;28;20196;-82
2022/03/08 09:10:23;;;;;;;12.83;7.00;;;9.10;76.70;;;;;;5074824;28;20579;-84
2022/03/08 09:12:51;;;;;;;7.37;5.73;;;8.50;77.10;;;;;;5073239;28;20173;-83
2022/03/08 09:15:18;;;;;;;12.70;6.30;;;8.70;77.00;;;;;;5070700;28;20172;-83
2022/03/08 09:17:44;;;;;;;9.33;6.40;;;8.70;77.30;;;;;;5071668;28;20209;-84
2022/03/08 09:20:10;;;;;;;10.30;6.37;;;9.10;76.90;;;;;;5070977;28;20182;-84
2022/03/08 09:22:36;;;;;;;9.60;6.53;;;9.10;75.20;;;;;;5072333;28;20170;-84
2022/03/08 09:25:03;;;;;;;12.27;6.10;;;9.80;76.40;;;;;;5070231;28;20170;-83
2022/03/08 09:27:30;;;;;;;10.77;5.57;;;9.70;74.60;;;;;;5070288;28;20230;-84
2022/03/08 09:29:56;;;;;;;9.80;6.10;;;9.20;74.20;;;;;;5070930;28;20174;-83
2022/03/08 09:32:22;;;;;;;9.03;6.40;;;8.90;74.90;;;;;;5071134;28;20312;-83
2022/03/08 09:34:47;;;;;;;7.97;5.40;;;9.50;73.30;;;;;;5072991;28;20646;-84
2022/03/08 09:37:13;;;;;;;12.53;6.13;;;9.30;74.30;;;;;;5072036;28;20200;-83
2022/03/08 09:39:38;;;;;;;7.43;5.97;;;9.60;73.90;;;;;;5071941;28;20516;-83
2022/03/08 09:42:04;;;;;;;11.63;6.70;;;9.80;73.00;;;;;;5072286;28;20543;-83
2022/03/08 09:44:30;;;;;;;11.40;6.40;;;9.40;75.10;;;;;;5070990;28;20259;-83
2022/03/08 09:46:56;;;;;;;9.43;5.80;;;9.80;75.10;;;;;;5071371;28;20172;-83
2022/03/08 09:49:21;;;;;;;11.23;6.27;;;9.70;73.80;;;;;;5071743;28;20292;-83
2022/03/08 09:51:47;;;;;;;10.00;5.73;;;9.60;72.90;;;;;;5071936;28;20178;-83
2022/03/08 09:54:13;;;;;;;8.57;5.80;;;9.80;75.40;;;;;;5075362;28;20208;-84
2022/03/08 09:56:39;;;;;;;12.30;5.77;;;9.90;74.70;;;;;;5073986;28;20177;-84
2022/03/08 09:59:05;;;;;;;10.10;5.63;;;9.70;72.40;;;;;;5073254;28;20229;-83
2022/03/08 10:01:30;;;;;;;11.47;6.33;;;10.20;72.40;;;;;;5072280;28;20210;-83
2022/03/08 10:03:56;;;;;;;10.23;5.87;;;9.50;70.80;;;;;;5075700;28;20178;-84
2022/03/08 10:06:22;;;;;;;6.77;5.30;;;9.50;72.50;;;;;;5077710;28;20626;-84
2022/03/08 10:08:47;;;;;;;7.23;4.77;;;9.90;72.10;;;;;;5081764;28;20275;-83
2022/03/08 10:11:14;;;;;;;9.03;5.47;;;9.70;71.20;;;;;;5079545;28;20181;-82
2022/03/08 10:13:58;;;;;;;8.20;5.67;;;9.30;72.00;;;;;;5076364;28;20657;-83
2022/03/08 10:16:27;;;;;;;8.00;4.87;;;9.10;72.20;;;;;;5077079;28;20189;-83
2022/03/08 10:18:55;;;;;;;9.53;5.03;;;9.30;72.10;;;;;;5076800;28;20603;-83
2022/03/08 10:21:35;;;;;;;10.20;5.20;;;9.70;72.20;;;;;;5076733;28;20205;-83
2022/03/08 10:24:05;;;;;;;8.27;5.40;;;9.80;71.30;;;;;;5076295;28;20539;-84
2022/03/08 10:26:41;;;;;;;7.97;4.90;;;10.10;70.80;;;;;;5064693;28;20197;-82
2022/03/08 10:29:07;;;;;;;8.40;5.77;;;10.30;70.30;;;;;;5055925;28;20241;-81
2022/03/08 10:31:32;;;;;;;10.20;5.13;;;10.10;71.20;;;;;;5058322;28;20171;-82
2022/03/08 10:34:09;;;;;;;10.63;5.37;;;9.50;72.30;;;;;;5064566;28;20168;-83
2022/03/08 10:36:36;;;;;;;10.23;5.67;;;10.00;71.10;;;;;;5067910;28;20238;-82
2022/03/08 10:39:09;;;;;;;9.00;5.27;;;9.80;71.60;;;;;;5066808;28;20200;-83
2022/03/08 10:42:01;;;;;;;9.17;5.07;;;10.00;70.70;;;;;;5066225;28;20193;-82
2022/03/08 10:44:39;;;;;;;8.10;4.47;;;9.70;71.10;;;;;;5065582;28;20183;-82
2022/03/08 10:47:10;;;;;;;7.57;4.60;;;10.10;71.30;;;;;;5067865;28;20168;-83
2022/03/08 10:49:48;;;;;;;7.43;4.97;;;10.10;70.40;;;;;;5068040;28;20169;-82
2022/03/08 10:52:14;;;;;;;7.10;4.60;;;10.20;71.10;;;;;;5069013;28;20179;-82
2022/03/08 10:54:40;;;;;;;9.47;4.97;;;10.10;70.60;;;;;;5068406;28;20197;-83
2022/03/08 10:57:07;;;;;;;8.53;4.67;;;10.20;71.50;;;;;;5068730;28;20235;-82
2022/03/08 10:59:33;;;;;;;7.50;5.03;;;10.30;70.30;;;;;;5067766;28;20372;-82
2022/03/08 11:02:19;;;;;;;7.77;4.60;;;10.50;70.80;;;;;;5062418;28;20220;-82
2022/03/08 11:04:45;;;;;;;24.63;5.20;;;10.50;69.60;;;;;;5057559;28;20690;-82
2022/03/08 11:07:12;;;;;;;8.63;4.83;;;10.10;68.80;;;;;;5057451;28;20181;-82
2022/03/08 11:09:38;;;;;;;8.23;4.63;;;10.30;68.80;;;;;;5057967;28;20171;-82
2022/03/08 11:12:04;;;;;;;11.70;4.13;;;10.20;69.30;;;;;;5059462;28;20188;-82
2022/03/08 11:14:30;;;;;;;7.07;4.30;;;10.30;68.50;;;;;;5056582;28;20219;-82
2022/03/08 11:16:57;;;;;;;6.00;4.30;;;10.50;68.50;;;;;;5056350;28;20227;-82
2022/03/08 11:19:27;;;;;;;6.93;4.00;;;10.50;67.60;;;;;;5060529;28;20751;-82
2022/03/08 11:21:57;;;;;;;8.63;4.27;;;10.40;67.10;;;;;;5057287;28;20192;-82
2022/03/08 11:24:23;;;;;;;7.77;4.40;;;10.50;67.70;;;;;;5061085;28;20173;-81
2022/03/08 11:26:50;;;;;;;7.10;4.47;;;10.50;66.70;;;;;;5057199;28;20179;-81
2022/03/08 11:29:16;;;;;;;7.20;4.73;;;10.50;66.40;;;;;;5057633;28;20225;-82
2022/03/08 11:31:45;;;;;;;8.90;3.87;;;10.50;67.80;;;;;;5056723;28;20187;-81
2022/03/08 11:34:34;;;;;;;6.43;3.70;;;10.60;67.10;;;;;;5056792;28;20218;-82
2022/03/08 11:37:07;;;;;;;7.50;4.17;;;10.70;66.50;;;;;;5056349;28;20220;-82
2022/03/08 11:39:39;;;;;;;5.53;4.33;;;10.80;66.50;;;;;;5057544;28;20203;-81
2022/03/08 11:42:17;;;;;;;7.17;4.47;;;11.20;68.50;;;;;;5056897;28;20734;-82
2022/03/08 11:44:56;;;;;;;9.10;4.63;;;11.20;66.00;;;;;;5058414;28;20660;-82
2022/03/08 11:47:22;;;;;;;8.50;4.23;;;11.70;66.50;;;;;;5059294;28;20166;-82
2022/03/08 11:49:56;;;;;;;6.07;4.10;;;11.80;66.60;;;;;;5058271;28;20197;-81
2022/03/08 11:52:36;;;;;;;11.97;4.30;;;11.10;65.10;;;;;;5056685;28;20606;-82
2022/03/08 11:55:12;;;;;;;7.73;3.90;;;10.90;66.10;;;;;;5057313;28;20193;-82
2022/03/08 11:58:23;;;;;;;6.53;3.80;;;10.90;65.60;;;;;;5056159;28;20197;-82
2022/03/08 12:00:53;;;;;;;7.83;4.43;;;11.40;66.50;;;;;;5021952;28;20194;-82
2022/03/08 12:03:22;;;;;;;6.50;4.23;;;11.30;64.60;;;;;;5028058;28;20609;-82
2022/03/08 12:06:07;;;;;;;8.77;4.37;;;11.20;65.60;;;;;;5049091;28;20276;-82
2022/03/08 12:08:41;;;;;;;8.00;4.40;;;11.00;65.60;;;;;;5055060;28;20220;-82
2022/03/08 12:11:31;;;;;;;7.70;4.33;;;11.40;66.30;;;;;;5054739;28;20270;-82
2022/03/08 12:14:03;;;;;;;5.80;4.10;;;11.30;64.90;;;;;;5055425;28;20715;-82
2022/03/08 12:16:29;;;;;;;6.83;4.30;;;11.20;67.10;;;;;;5055531;28;20170;-82
2022/03/08 12:18:56;;;;;;;5.70;4.10;;;10.90;66.30;;;;;;5055824;28;20310;-82
2022/03/08 12:21:23;;;;;;;5.60;4.13;;;11.10;67.40;;;;;;5055109;28;20234;-82
2022/03/08 12:24:02;;;;;;;6.27;4.07;;;11.60;65.90;;;;;;5055352;28;20578;-82
2022/03/08 12:26:50;;;;;;;9.13;4.20;;;11.40;66.50;;;;;;5053747;28;20692;-81
2022/03/08 12:29:26;;;;;;;5.93;3.63;;;11.30;66.10;;;;;;5054728;28;20203;-82
2022/03/08 12:32:06;;;;;;;10.73;4.10;;;11.10;65.20;;;;;;5055997;28;20646;-81
2022/03/08 12:34:45;;;;;;;9.23;4.10;;;11.00;66.40;;;;;;5063960;28;20173;-81
2022/03/08 12:37:16;;;;;;;7.87;4.10;;;10.90;65.80;;;;;;5064713;28;20180;-81
2022/03/08 12:39:56;;;;;;;7.10;4.50;;;11.00;66.30;;;;;;5063855;28;20170;-82